Time;durP1;ratioP1;P1;durP2;ratioP2;P2;SDS_P1;SDS_P2;PMS_P1;PMS_P2;Temp;Humidity;BMP_temperature;BMP_pressure;BME280_temperature;BME280_humidity;BME280_pressure;Samples;Min_cycle;Max_cycle;Signal;HPM_P1;HPM_P2
2022/01/01 00:00:46;;;;;;;187.00;61.75;;;;;;;0.24;100.00;98608.41;5114487;28;20035;-75
2022/01/01 00:03:11;;;;;;;239.45;61.28;;;;;;;0.22;100.00;98605.94;5112185;28;20011;-76
2022/01/01 00:05:36;;;;;;;163.60;59.25;;;;;;;0.29;100.00;98614.78;5111254;28;20027;-76
2022/01/01 00:08:04;;;;;;;169.45;65.93;;;;;;;0.27;100.00;98605.28;5111365;28;20026;-76
2022/01/01 00:10:30;;;;;;;300.73;71.88;;;;;;;0.23;100.00;98601.38;5106867;28;20030;-75
2022/01/01 00:12:55;;;;;;;330.63;63.28;;;;;;;0.16;100.00;98600.59;5107000;28;20399;-75
2022/01/01 00:15:21;;;;;;;448.73;81.13;;;;;;;0.23;100.00;98601.38;5103639;28;20035;-75
2022/01/01 00:17:46;;;;;;;223.68;66.63;;;;;;;0.26;100.00;98603.63;5110250;28;20471;-75
2022/01/01 00:20:13;;;;;;;196.48;64.55;;;;;;;0.31;100.00;98604.66;5108853;28;20510;-75
2022/01/01 00:22:42;;;;;;;166.35;62.47;;;;;;;0.29;100.00;98605.91;5111060;28;20080;-75
2022/01/01 00:25:09;;;;;;;285.65;73.70;;;;;;;0.30;100.00;98602.19;5111153;28;20063;-75
2022/01/01 00:27:35;;;;;;;198.07;74.75;;;;;;;0.33;100.00;98599.06;5111359;28;20023;-76
2022/01/01 00:30:01;;;;;;;197.20;79.88;;;;;;;0.41;100.00;98604.19;5112042;28;20047;-76
2022/01/01 00:32:26;;;;;;;204.27;75.95;;;;;;;0.34;100.00;98595.34;5111342;28;20082;-76
2022/01/01 00:34:52;;;;;;;184.50;71.78;;;;;;;0.35;100.00;98600.50;5110695;28;20034;-75
2022/01/01 00:37:18;;;;;;;229.65;72.13;;;;;;;0.36;100.00;98609.38;5111052;28;20493;-76
2022/01/01 00:39:44;;;;;;;209.82;74.25;;;;;;;0.39;100.00;98608.97;5101433;28;20040;-75
2022/01/01 00:42:10;;;;;;;211.45;73.68;;;;;;;0.36;100.00;98599.47;5110618;28;20034;-75
2022/01/01 00:44:35;;;;;;;304.95;69.43;;;;;;;0.38;100.00;98599.22;5108849;28;20078;-77
2022/01/01 00:47:01;;;;;;;233.30;67.18;;;;;;;0.33;100.00;98601.75;5110529;28;20054;-76
2022/01/01 00:49:27;;;;;;;256.17;70.75;;;;;;;0.34;100.00;98606.09;5110361;28;20031;-76
2022/01/01 00:51:53;;;;;;;309.70;68.68;;;;;;;0.33;100.00;98602.59;5108025;28;20035;-74
2022/01/01 00:54:18;;;;;;;231.15;69.22;;;;;;;0.06;100.00;98610.97;5104597;28;20028;-76
2022/01/01 00:56:44;;;;;;;283.98;74.20;;;;;;;0.60;100.00;98597.88;5109708;28;20050;-75
2022/01/01 00:59:09;;;;;;;215.50;70.90;;;;;;;0.64;100.00;98599.09;5103160;28;20128;-74
2022/01/01 01:01:36;;;;;;;156.00;67.05;;;;;;;0.42;100.00;98627.38;5109506;28;20392;-76
2022/01/01 01:04:02;;;;;;;407.33;74.95;;;;;;;0.24;100.00;98594.97;5110843;28;20023;-74
2022/01/01 01:06:27;;;;;;;286.75;65.47;;;;;;;0.03;100.00;98595.25;5110614;28;20041;-76
2022/01/01 01:08:55;;;;;;;447.08;73.97;;;;;;;-0.11;100.00;98624.88;5110667;28;20031;-76
2022/01/01 01:11:20;;;;;;;341.83;72.43;;;;;;;0.09;100.00;98607.84;5109819;28;20018;-76
2022/01/01 01:13:55;;;;;;;454.90;74.78;;;;;;;0.01;100.00;98627.72;5106604;28;20032;-75
2022/01/01 01:16:21;;;;;;;490.40;78.15;;;;;;;0.03;100.00;98611.41;5109602;28;20749;-75
2022/01/01 01:18:46;;;;;;;473.30;78.00;;;;;;;0.04;100.00;98607.66;5102051;28;20032;-75
2022/01/01 01:21:11;;;;;;;1001.85;112.75;;;;;;;-0.06;100.00;98624.22;5096366;28;20031;-76
2022/01/01 01:23:37;;;;;;;353.55;74.13;;;;;;;0.04;100.00;98607.66;5105352;28;20402;-76
2022/01/01 01:26:02;;;;;;;266.08;71.43;;;;;;;0.03;100.00;98611.41;5108534;28;20089;-77
2022/01/01 01:28:27;;;;;;;263.40;74.32;;;;;;;0.04;100.00;98615.72;5109024;28;20031;-77
2022/01/01 01:30:53;;;;;;;285.02;70.47;;;;;;;0.11;100.00;98625.44;5112229;28;20032;-76
2022/01/01 01:33:18;;;;;;;503.80;82.95;;;;;;;0.03;100.00;98616.78;5114303;28;20020;-75
2022/01/01 01:35:44;;;;;;;279.33;71.05;;;;;;;-0.11;100.00;98611.44;5111911;28;20106;-78
2022/01/01 01:38:09;;;;;;;366.98;71.25;;;;;;;-0.13;100.00;98612.69;5108581;28;20088;-75
2022/01/01 01:40:34;;;;;;;344.92;71.38;;;;;;;-0.05;100.00;98615.97;5108293;28;20019;-75
2022/01/01 01:43:07;;;;;;;423.17;75.50;;;;;;;-0.02;100.00;98626.28;5109051;28;20019;-75
2022/01/01 01:45:33;;;;;;;256.35;66.70;;;;;;;0.00;100.00;98616.13;5106851;28;20023;-75
2022/01/01 01:47:59;;;;;;;225.82;68.00;;;;;;;0.11;100.00;98619.22;5102408;28;20031;-77
2022/01/01 01:50:24;;;;;;;326.38;68.65;;;;;;;0.11;100.00;98608.47;5104569;28;20031;-76
2022/01/01 01:52:53;;;;;;;320.67;70.65;;;;;;;0.14;100.00;98613.41;5112257;28;20542;-76
2022/01/01 01:55:19;;;;;;;212.48;66.65;;;;;;;0.08;100.00;98604.34;5103762;28;20043;-74
2022/01/01 01:57:44;;;;;;;196.27;66.82;;;;;;;0.03;100.00;98614.91;5108396;28;20024;-75
2022/01/01 02:00:41;;;;;;;189.02;67.07;;;;;;;-0.10;100.00;98618.47;5108315;28;20008;-76
2022/01/01 02:02:58;;;;;;;569.78;90.88;;;;;;;-0.05;100.00;98607.91;5101539;28;20126;-75
2022/01/01 02:05:24;;;;;;;291.13;79.32;;;;;;;0.05;100.00;98614.69;5106411;28;20131;-76
2022/01/01 02:07:50;;;;;;;192.65;69.40;;;;;;;0.15;100.00;98609.69;5111346;28;20035;-75
2022/01/01 02:10:17;;;;;;;216.90;66.90;;;;;;;0.21;100.00;98608.84;5113068;28;20498;-75
2022/01/01 02:12:47;;;;;;;180.40;63.75;;;;;;;0.09;100.00;98599.78;5113811;28;20123;-75
2022/01/01 02:16:27;;;;;;;254.85;62.58;;;;;;;-0.06;100.00;98608.94;5113777;27;20040;-75
2022/01/01 02:18:14;;;;;;;417.23;76.85;;;;;;;-0.20;100.00;98618.06;5099246;28;20051;-75
2022/01/01 02:20:40;;;;;;;249.57;67.63;;;;;;;-0.19;100.00;98616.22;5114964;28;20067;-75
2022/01/01 02:23:06;;;;;;;418.50;75.43;;;;;;;-0.26;100.00;98597.41;5113659;28;20024;-74
2022/01/01 02:25:32;;;;;;;373.42;67.90;;;;;;;-0.26;100.00;98602.78;5113684;28;20031;-75
2022/01/01 02:27:58;;;;;;;323.27;73.95;;;;;;;-0.26;100.00;98601.97;5113596;28;20028;-76
2022/01/01 02:30:24;;;;;;;510.67;79.88;;;;;;;-0.23;100.00;98617.66;5113033;28;20388;-75
2022/01/01 02:32:49;;;;;;;270.55;62.38;;;;;;;-0.26;100.00;98618.91;5113815;28;20023;-74
2022/01/01 02:35:17;;;;;;;379.00;68.15;;;;;;;-0.28;100.00;98612.09;5113565;28;20110;-75
2022/01/01 02:37:43;;;;;;;329.00;64.78;;;;;;;-0.21;100.00;98612.91;5113590;28;20008;-75
2022/01/01 02:40:09;;;;;;;256.08;66.90;;;;;;;-0.22;100.00;98628.19;5113172;28;20024;-75
2022/01/01 02:42:39;;;;;;;460.83;74.95;;;;;;;-0.42;100.00;98630.09;5113119;28;20028;-75
2022/01/01 02:45:08;;;;;;;468.67;77.13;;;;;;;-0.40;100.00;98627.19;5113222;28;20164;-76
2022/01/01 02:47:34;;;;;;;316.70;70.65;;;;;;;-0.43;100.00;98620.38;5112823;28;20020;-75
2022/01/01 02:50:00;;;;;;;265.88;65.13;;;;;;;-0.32;100.00;98622.44;5110436;28;20027;-76
2022/01/01 02:52:25;;;;;;;364.27;73.03;;;;;;;-0.32;100.00;98625.13;5112334;28;20165;-74
2022/01/01 02:54:50;;;;;;;212.45;69.55;;;;;;;-0.32;100.00;98632.34;5113059;28;20138;-75
2022/01/01 02:57:17;;;;;;;669.50;83.20;;;;;;;-0.27;100.00;98625.31;5113108;28;20480;-75
2022/01/01 02:59:42;;;;;;;528.17;70.78;;;;;;;-0.36;100.00;98637.31;5112932;28;20038;-75
2022/01/01 03:02:07;;;;;;;310.67;63.13;;;;;;;-0.32;100.00;98625.13;5111245;28;20012;-75
2022/01/01 03:04:33;;;;;;;466.52;66.88;;;;;;;-0.39;100.00;98613.56;5112870;28;20032;-76
2022/01/01 03:06:59;;;;;;;306.65;63.45;;;;;;;-0.30;100.00;98628.44;5111746;28;20081;-76
2022/01/01 03:09:27;;;;;;;390.67;71.55;;;;;;;-0.25;100.00;98617.06;5111392;28;20024;-75
2022/01/01 03:11:53;;;;;;;406.60;74.03;;;;;;;-0.26;100.00;98608.16;5112844;28;20180;-74
2022/01/01 03:14:18;;;;;;;270.05;64.65;;;;;;;-0.36;100.00;98639.19;5112596;28;20531;-76
2022/01/01 03:16:45;;;;;;;174.15;63.50;;;;;;;-0.38;100.00;98646.63;5113473;28;20357;-75
2022/01/01 03:19:10;;;;;;;267.88;66.88;;;;;;;-0.47;100.00;98629.88;5111287;27;20043;-75
2022/01/01 03:21:36;;;;;;;197.57;63.15;;;;;;;-0.33;100.00;98614.56;5112767;28;20036;-77
2022/01/01 03:24:01;;;;;;;282.77;65.47;;;;;;;-0.51;100.00;98612.56;5114093;28;20496;-75
2022/01/01 03:26:27;;;;;;;208.25;64.82;;;;;;;-0.48;100.00;98620.19;5112582;28;20541;-75
2022/01/01 03:28:52;;;;;;;181.00;56.90;;;;;;;-0.38;100.00;98620.59;5112373;28;20110;-77
2022/01/01 03:31:17;;;;;;;158.63;57.70;;;;;;;-0.37;100.00;98635.66;5111982;28;20108;-76
2022/01/01 03:33:43;;;;;;;200.63;61.25;;;;;;;-0.48;100.00;98640.84;5112500;28;20455;-75
2022/01/01 03:36:08;;;;;;;364.65;63.20;;;;;;;-0.73;100.00;98616.50;5112204;28;20506;-74
2022/01/01 03:38:34;;;;;;;196.63;56.35;;;;;;;-0.68;100.00;98630.94;5110527;28;20104;-75
2022/01/01 03:41:00;;;;;;;213.50;56.85;;;;;;;-0.56;100.00;98658.00;5112395;28;20042;-75
2022/01/01 03:43:25;;;;;;;210.82;56.22;;;;;;;-0.59;100.00;98644.97;5112021;28;20130;-75
2022/01/01 03:45:50;;;;;;;201.10;58.83;;;;;;;-0.66;100.00;98673.72;5111859;28;20476;-75
2022/01/01 03:48:16;;;;;;;143.02;59.15;;;;;;;-0.78;100.00;98670.78;5111475;28;20128;-75
2022/01/01 03:50:41;;;;;;;254.05;59.72;;;;;;;-0.74;100.00;98655.09;5111449;28;20024;-75
2022/01/01 03:53:07;;;;;;;211.00;57.47;;;;;;;-0.76;100.00;98649.94;5112106;28;20028;-73
2022/01/01 03:55:32;;;;;;;365.63;67.63;;;;;;;-0.87;100.00;98636.28;5111887;28;20039;-74
2022/01/01 03:57:57;;;;;;;243.07;63.03;;;;;;;-0.84;100.00;98650.13;5112164;28;20392;-74
2022/01/01 04:00:23;;;;;;;379.23;72.35;;;;;;;-0.86;100.00;98664.81;5111588;28;20034;-73
2022/01/01 04:02:49;;;;;;;181.63;63.00;;;;;;;-0.63;100.00;98679.47;5112800;28;20111;-75
2022/01/01 04:05:14;;;;;;;210.80;67.32;;;;;;;-0.63;100.00;98659.88;5114636;28;20034;-73
2022/01/01 04:07:39;;;;;;;323.50;66.05;;;;;;;-0.68;100.00;98670.38;5115690;28;20506;-74
2022/01/01 04:10:05;;;;;;;234.13;65.30;;;;;;;-0.56;100.00;98692.91;5113236;28;20050;-73
2022/01/01 04:12:31;;;;;;;449.65;75.97;;;;;;;-0.58;100.00;98674.34;5112509;28;20051;-72
2022/01/01 04:14:59;;;;;;;339.60;71.43;;;;;;;-0.66;100.00;98677.19;5112261;28;20059;-74
2022/01/01 04:17:24;;;;;;;257.75;70.13;;;;;;;-0.56;100.00;98690.22;5112040;28;20069;-75
2022/01/01 04:19:50;;;;;;;297.05;71.70;;;;;;;-0.49;100.00;98687.53;5113753;28;20023;-74
2022/01/01 04:22:16;;;;;;;237.57;68.03;;;;;;;-0.41;100.00;98685.50;5110607;28;20026;-74
2022/01/01 04:24:42;;;;;;;273.83;68.63;;;;;;;-0.51;100.00;98689.63;5111789;28;20023;-74
2022/01/01 04:27:08;;;;;;;241.40;68.35;;;;;;;-0.28;100.00;98677.41;5111871;27;20026;-74
2022/01/01 04:29:34;;;;;;;343.45;70.07;;;;;;;-0.55;100.00;98678.47;5111801;28;20031;-74
2022/01/01 04:32:00;;;;;;;187.32;66.72;;;;;;;-0.43;100.00;98692.09;5111736;28;20395;-74
2022/01/01 04:34:26;;;;;;;217.07;67.72;;;;;;;-0.34;100.00;98659.44;5112353;28;20024;-73
2022/01/01 04:37:35;;;;;;;258.27;74.07;;;;;;;-0.26;100.00;98691.47;5111671;28;20019;-74
2022/01/01 04:39:41;;;;;;;158.88;68.60;;;;;;;-0.14;100.00;98675.53;5103227;28;20449;-74
2022/01/01 04:42:07;;;;;;;284.17;72.13;;;;;;;-0.10;100.00;98664.16;5111635;28;20072;-74
2022/01/01 04:44:33;;;;;;;289.30;67.35;;;;;;;-0.16;100.00;98686.47;5111791;28;20364;-73
2022/01/01 04:46:58;;;;;;;373.27;72.25;;;;;;;-0.35;100.00;98662.34;5111386;28;20034;-74
2022/01/01 04:49:23;;;;;;;131.15;56.67;;;;;;;-0.43;100.00;98651.78;5111601;28;20031;-75
2022/01/01 04:51:49;;;;;;;183.27;61.97;;;;;;;-0.42;100.00;98680.31;5110808;28;20016;-74
2022/01/01 04:54:16;;;;;;;175.93;61.22;;;;;;;-0.37;100.00;98675.97;5109926;27;20058;-75
2022/01/01 04:56:47;;;;;;;211.77;62.58;;;;;;;-0.45;100.00;98660.06;5110789;28;20051;-74
2022/01/01 04:59:13;;;;;;;136.60;60.20;;;;;;;-0.39;100.00;98683.41;5111200;28;20027;-73
2022/01/01 05:01:40;;;;;;;130.30;58.60;;;;;;;-0.36;100.00;98685.69;5109759;28;20028;-74
2022/01/01 05:04:07;;;;;;;179.27;58.83;;;;;;;-0.43;100.00;98692.09;5111492;28;20023;-75
2022/01/01 05:06:33;;;;;;;162.07;57.28;;;;;;;-0.40;100.00;98697.03;5111182;28;20034;-75
2022/01/01 05:08:58;;;;;;;229.63;62.35;;;;;;;-0.40;100.00;98703.25;5111429;28;20031;-75
2022/01/01 05:11:24;;;;;;;181.00;57.22;;;;;;;-0.45;100.00;98716.50;5110818;28;20015;-75
2022/01/01 05:13:49;;;;;;;129.10;60.47;;;;;;;-0.28;100.00;98706.97;5111366;28;20030;-74
2022/01/01 05:16:18;;;;;;;167.77;56.72;;;;;;;-0.25;100.00;98685.03;5111918;28;20378;-75
2022/01/01 05:18:44;;;;;;;160.32;58.72;;;;;;;-0.19;100.00;98694.97;5111285;28;20118;-75
2022/01/01 05:21:09;;;;;;;180.20;56.63;;;;;;;-0.26;100.00;98702.22;5111293;28;20031;-75
2022/01/01 05:23:35;;;;;;;145.02;58.60;;;;;;;-0.28;100.00;98706.97;5111253;28;20011;-75
2022/01/01 05:26:00;;;;;;;260.85;55.67;;;;;;;-0.40;100.00;98715.84;5110930;28;20043;-75
2022/01/01 05:28:26;;;;;;;243.25;57.08;;;;;;;-0.42;100.00;98702.66;5111105;28;20130;-74
2022/01/01 05:30:51;;;;;;;263.08;62.25;;;;;;;-0.47;100.00;98715.84;5110976;28;20019;-75
2022/01/01 05:33:17;;;;;;;271.25;60.13;;;;;;;-0.57;100.00;98712.75;5111426;28;20059;-75
2022/01/01 05:35:42;;;;;;;360.98;65.20;;;;;;;-0.49;100.00;98712.56;5110960;28;20028;-75
2022/01/01 05:38:08;;;;;;;483.63;68.90;;;;;;;-0.65;100.00;98710.25;5111167;28;20097;-75
2022/01/01 05:40:33;;;;;;;313.95;67.57;;;;;;;-0.60;100.00;98718.56;5110974;28;20039;-75
2022/01/01 05:42:59;;;;;;;229.25;65.78;;;;;;;-0.60;100.00;98719.38;5113891;28;20030;-75
2022/01/01 05:45:24;;;;;;;325.58;70.00;;;;;;;-0.47;100.00;98729.28;5115008;28;20034;-74
2022/01/01 05:47:49;;;;;;;205.75;62.70;;;;;;;-0.43;100.00;98719.78;5114936;28;20043;-75
2022/01/01 05:50:17;;;;;;;483.40;80.28;;;;;;;-0.43;100.00;98725.16;5114929;28;20019;-75
2022/01/01 05:52:43;;;;;;;179.65;63.20;;;;;;;-0.28;100.00;98741.91;5114993;28;20027;-74
2022/01/01 05:55:08;;;;;;;181.45;65.07;;;;;;;-0.31;100.00;98744.16;5115055;28;20487;-75
2022/01/01 05:57:34;;;;;;;159.25;59.53;;;;;;;-0.42;100.00;98734.06;5117719;28;20688;-75
2022/01/01 05:59:59;;;;;;;162.88;59.70;;;;;;;-0.41;100.00;98731.19;5114968;28;20007;-76
2022/01/01 06:02:25;;;;;;;249.02;63.50;;;;;;;-0.52;100.00;98742.50;5115082;28;20081;-75
2022/01/01 06:04:50;;;;;;;168.40;61.03;;;;;;;-0.46;100.00;98747.06;5115152;27;20118;-74
2022/01/01 06:07:15;;;;;;;271.88;64.70;;;;;;;-0.52;100.00;98747.06;5114765;28;20082;-75
2022/01/01 06:09:41;;;;;;;180.13;58.95;;;;;;;-0.62;100.00;98756.34;5116189;28;20024;-75
2022/01/01 06:12:06;;;;;;;175.88;56.38;;;;;;;-0.58;100.00;98762.13;5114920;28;20476;-74
2022/01/01 06:14:32;;;;;;;216.20;57.60;;;;;;;-0.55;100.00;98749.13;5114300;28;20020;-74
2022/01/01 06:16:57;;;;;;;137.40;56.15;;;;;;;-0.48;100.00;98756.38;5114535;27;20027;-75
2022/01/01 06:19:22;;;;;;;181.20;57.08;;;;;;;-0.44;100.00;98771.88;5115524;28;20030;-74
2022/01/01 06:21:48;;;;;;;256.77;57.55;;;;;;;-0.47;100.00;98768.78;5117416;28;20493;-75
2022/01/01 06:24:13;;;;;;;145.90;53.80;;;;;;;-0.45;100.00;98786.34;5115230;28;20384;-75
2022/01/01 06:26:39;;;;;;;246.65;59.53;;;;;;;-0.49;100.00;98800.38;5114423;28;20032;-73
2022/01/01 06:29:05;;;;;;;352.13;59.90;;;;;;;-0.57;100.00;98788.81;5117962;28;20863;-75
2022/01/01 06:31:30;;;;;;;162.77;55.13;;;;;;;-0.49;100.00;98803.88;5120462;28;20042;-75
2022/01/01 06:33:56;;;;;;;140.95;56.13;;;;;;;-0.44;100.00;98788.00;5121289;27;20028;-74
2022/01/01 06:36:21;;;;;;;202.80;58.28;;;;;;;-0.53;100.00;98796.47;5117551;28;20433;-75
2022/01/01 06:38:47;;;;;;;228.07;62.25;;;;;;;-0.67;100.00;98809.84;5114928;28;20471;-75
2022/01/01 06:41:13;;;;;;;342.17;64.50;;;;;;;-0.84;100.00;98799.66;5113856;28;20051;-74
2022/01/01 06:43:39;;;;;;;167.65;56.78;;;;;;;-0.89;100.00;98807.50;5111013;28;20383;-74
2022/01/01 06:46:06;;;;;;;327.73;66.65;;;;;;;-0.85;100.00;98798.03;5111430;28;20085;-75
2022/01/01 06:48:32;;;;;;;234.32;72.82;;;;;;;-0.74;100.00;98813.53;5111411;28;20096;-74
2022/01/01 06:50:57;;;;;;;230.77;63.60;;;;;;;-0.75;100.00;98795.78;5098347;28;20016;-74
2022/01/01 06:53:23;;;;;;;289.50;62.83;;;;;;;-0.73;100.00;98788.34;5091973;28;20031;-74
2022/01/01 06:55:48;;;;;;;138.00;56.28;;;;;;;-0.65;100.00;98801.56;5093026;28;20048;-75
2022/01/01 06:58:14;;;;;;;218.05;56.13;;;;;;;-0.65;100.00;98796.22;5093382;28;20077;-74
2022/01/01 07:00:40;;;;;;;123.53;53.28;;;;;;;-0.72;100.00;98828.41;5093432;28;20036;-75
2022/01/01 07:03:05;;;;;;;176.20;56.15;;;;;;;-0.78;100.00;98834.59;5093613;28;20464;-75
2022/01/01 07:05:31;;;;;;;180.95;54.40;;;;;;;-0.64;100.00;98822.03;5094289;28;20032;-75
2022/01/01 07:07:57;;;;;;;156.27;50.25;;;;;;;-0.71;100.00;98840.00;5093122;28;20024;-74
2022/01/01 07:10:22;;;;;;;198.23;54.63;;;;;;;-0.71;100.00;98830.09;5092827;28;20024;-72
2022/01/01 07:12:47;;;;;;;201.65;52.13;;;;;;;-0.66;100.00;98816.06;5093020;28;20032;-75
2022/01/01 07:15:15;;;;;;;295.83;59.20;;;;;;;-0.72;100.00;98824.94;5092638;28;20032;-75
2022/01/01 07:17:41;;;;;;;270.85;58.88;;;;;;;-0.65;100.00;98828.44;5092823;28;20492;-74
2022/01/01 07:20:08;;;;;;;137.98;51.30;;;;;;;-0.65;100.00;98855.28;5092840;28;20028;-74
2022/01/01 07:22:44;;;;;;;268.98;57.55;;;;;;;-0.76;100.00;98821.81;5092580;28;20484;-75
2022/01/01 07:25:11;;;;;;;341.10;63.47;;;;;;;-1.08;100.00;98811.78;5092671;28;20484;-75
2022/01/01 07:27:36;;;;;;;151.80;57.65;;;;;;;-0.83;100.00;98869.28;5092622;28;20090;-75
2022/01/01 07:30:04;;;;;;;189.57;56.40;;;;;;;-0.85;100.00;98823.03;5092726;28;20049;-75
2022/01/01 07:32:29;;;;;;;245.10;58.00;;;;;;;-0.97;100.00;98846.06;5092611;28;20028;-74
2022/01/01 07:34:55;;;;;;;126.10;55.88;;;;;;;-0.68;100.00;98874.50;5092883;28;20054;-75
2022/01/01 07:37:20;;;;;;;430.77;67.28;;;;;;;-0.92;100.00;98837.44;5092449;28;20482;-75
2022/01/01 07:39:46;;;;;;;134.43;55.75;;;;;;;-0.69;100.00;98887.09;5092363;28;20038;-75
2022/01/01 07:42:14;;;;;;;127.25;54.50;;;;;;;-0.51;100.00;98886.56;5092194;28;20073;-75
2022/01/01 07:44:43;;;;;;;398.63;61.22;;;;;;;-0.49;100.00;98865.69;5092279;28;20468;-75
2022/01/01 07:47:09;;;;;;;153.80;51.67;;;;;;;-0.46;100.00;98886.78;5091215;28;20044;-75
2022/01/01 07:49:34;;;;;;;135.23;51.97;;;;;;;-0.38;100.00;98861.59;5094957;28;20436;-74
2022/01/01 07:52:00;;;;;;;210.27;53.78;;;;;;;-0.47;100.00;98862.81;5112641;28;20540;-74
2022/01/01 07:54:25;;;;;;;160.48;50.95;;;;;;;-0.35;100.00;98905.00;5112057;28;20039;-75
2022/01/01 07:56:51;;;;;;;129.85;48.10;;;;;;;-0.29;100.00;98877.31;5111565;28;20028;-74
2022/01/01 07:59:16;;;;;;;107.00;47.58;;;;;;;-0.27;100.00;98895.91;5102114;28;20365;-75
2022/01/01 08:01:43;;;;;;;114.30;45.90;;;;;;;-0.13;100.00;98890.38;5094544;28;20124;-75
2022/01/01 08:04:09;;;;;;;175.65;46.40;;;;;;;-0.05;100.00;98874.06;5091492;28;20035;-76
2022/01/01 08:06:35;;;;;;;94.78;42.25;;;;;;;-0.01;100.00;98904.88;5094157;28;20416;-74
2022/01/01 08:09:00;;;;;;;108.53;42.78;;;;;;;-0.06;100.00;98876.94;5091290;28;20032;-75
2022/01/01 08:11:26;;;;;;;149.60;41.00;;;;;;;0.05;100.00;98883.56;5089804;28;20499;-74
2022/01/01 08:13:53;;;;;;;172.85;72.15;;;;;;;0.26;100.00;98886.91;5090909;28;20055;-75
2022/01/01 08:16:18;;;;;;;153.98;43.55;;;;;;;0.31;100.00;98891.66;5091097;28;20019;-75
2022/01/01 08:18:44;;;;;;;194.45;39.88;;;;;;;0.28;100.00;98881.31;5111441;28;20031;-75
2022/01/01 08:21:09;;;;;;;106.22;40.75;;;;;;;0.32;100.00;98906.75;5111441;28;20032;-75
2022/01/01 08:23:35;;;;;;;81.25;43.08;;;;;;;0.43;100.00;98888.16;5111405;28;20032;-75
2022/01/01 08:26:00;;;;;;;99.18;38.97;;;;;;;0.44;100.00;98910.47;5111720;28;20118;-74
2022/01/01 08:28:26;;;;;;;183.43;42.53;;;;;;;0.22;100.00;98907.16;5111606;28;20449;-75
2022/01/01 08:30:52;;;;;;;142.63;42.42;;;;;;;0.17;100.00;98895.38;5112056;28;20031;-75
2022/01/01 08:33:17;;;;;;;153.90;42.80;;;;;;;0.38;100.00;98900.53;5115816;28;20028;-75
2022/01/01 08:35:43;;;;;;;129.85;41.88;;;;;;;0.43;100.00;98890.00;5116839;28;20020;-76
2022/01/01 08:38:09;;;;;;;134.02;41.50;;;;;;;0.62;100.00;98913.41;5112260;28;20023;-76
2022/01/01 08:40:35;;;;;;;119.20;41.95;;;;;;;0.72;100.00;98916.47;5111752;28;20066;-75
2022/01/01 08:43:01;;;;;;;133.30;42.03;;;;;;;0.78;100.00;98912.13;5111530;28;20039;-75
2022/01/01 08:45:26;;;;;;;177.10;45.03;;;;;;;0.73;100.00;98903.84;5111460;28;20071;-75
2022/01/01 08:47:52;;;;;;;84.68;41.67;;;;;;;0.77;100.00;98899.69;5111953;28;20041;-75
2022/01/01 08:50:18;;;;;;;133.00;41.17;;;;;;;0.95;100.00;98913.34;5111899;28;20057;-75
2022/01/01 08:52:44;;;;;;;98.45;43.35;;;;;;;1.17;100.00;98905.81;5111645;28;20024;-75
2022/01/01 08:55:10;;;;;;;126.72;42.08;;;;;;;1.40;100.00;98915.09;5092678;28;20096;-76
2022/01/01 08:57:36;;;;;;;155.15;40.50;;;;;;;1.05;100.00;98919.13;5091123;28;20487;-75
2022/01/01 09:00:06;;;;;;;117.28;43.15;;;;;;;2.08;100.00;98932.38;5090643;28;20020;-76
2022/01/01 09:02:32;;;;;;;94.65;42.05;;;;;;;1.85;100.00;98926.69;5091038;28;20020;-75
2022/01/01 09:04:57;;;;;;;155.70;43.05;;;;;;;1.61;100.00;98919.34;5091007;28;20019;-77
2022/01/01 09:07:28;;;;;;;103.35;42.42;;;;;;;2.26;100.00;98928.94;5090349;28;20106;-74
2022/01/01 09:09:54;;;;;;;122.85;42.90;;;;;;;2.13;100.00;98939.84;5090807;28;20024;-76
2022/01/01 09:12:19;;;;;;;114.63;43.75;;;;;;;2.14;100.00;98936.91;5090780;28;20041;-75
2022/01/01 09:14:45;;;;;;;218.77;41.75;;;;;;;1.61;100.00;98930.13;5089371;28;20571;-74
2022/01/01 09:17:10;;;;;;;122.45;43.55;;;;;;;1.92;100.00;98935.59;5089803;28;20028;-75
2022/01/01 09:19:36;;;;;;;122.53;40.60;;;;;;;1.99;100.00;98936.38;5090746;28;20020;-75
2022/01/01 09:22:01;;;;;;;84.72;41.47;;;;;;;2.07;100.00;98949.59;5089774;28;20447;-75
2022/01/01 09:24:27;;;;;;;123.15;40.25;;;;;;;2.13;100.00;98946.03;5090564;28;20028;-74
2022/01/01 09:26:52;;;;;;;102.72;39.97;;;;;;;2.31;100.00;98942.63;5089125;28;20032;-75
2022/01/01 09:29:18;;;;;;;79.07;39.15;;;;;;;2.32;100.00;98941.56;5090691;28;20021;-76
2022/01/01 09:31:44;;;;;;;78.70;39.15;;;;;;;2.54;100.00;98942.00;5090437;28;20024;-76
2022/01/01 09:34:10;;;;;;;74.22;38.30;;;;;;;2.63;100.00;98951.53;5090678;28;20373;-76
2022/01/01 09:36:36;;;;;;;77.25;39.13;;;;;;;2.43;100.00;98950.84;5090861;28;20020;-76
2022/01/01 09:39:04;;;;;;;80.85;35.80;;;;;;;2.26;100.00;98955.09;5093816;28;20028;-75
2022/01/01 09:41:30;;;;;;;65.95;35.35;;;;;;;2.35;100.00;98965.41;5096939;28;20020;-76
2022/01/01 09:43:57;;;;;;;77.32;38.55;;;;;;;2.03;100.00;98959.19;5090999;28;20080;-76
2022/01/01 09:46:25;;;;;;;132.95;42.60;;;;;;;2.21;100.00;98949.53;5090736;28;20366;-75
2022/01/01 09:48:51;;;;;;;94.70;42.42;;;;;;;2.07;100.00;98946.91;5091413;28;20024;-74
2022/01/01 09:51:17;;;;;;;110.47;41.22;;;;;;;2.06;100.00;98945.28;5093650;28;20532;-76
2022/01/01 09:53:42;;;;;;;129.68;42.60;;;;;;;2.04;100.00;98936.53;5098726;28;20047;-75
2022/01/01 09:56:08;;;;;;;155.15;46.17;;;;;;;1.72;100.00;98932.16;5110466;28;20646;-75
2022/01/01 09:58:35;;;;;;;293.20;47.33;;;;;;;1.81;100.00;98938.97;5110940;28;20069;-75
2022/01/01 10:01:02;;;;;;;135.60;45.10;;;;;;;2.08;100.00;98921.59;5108318;28;20027;-75
2022/01/01 10:03:48;;;;;;;180.15;45.88;;;;;;;2.15;100.00;98935.03;5108254;28;20020;-75
2022/01/01 10:06:16;;;;;;;82.13;40.90;;;;;;;2.37;100.00;98938.22;5100391;28;20059;-76
2022/01/01 10:08:45;;;;;;;86.47;41.63;;;;;;;2.33;100.00;98937.81;5106295;28;20147;-75
2022/01/01 10:11:11;;;;;;;77.72;39.65;;;;;;;2.26;100.00;98944.28;5105160;28;20140;-75
2022/01/01 10:13:38;;;;;;;82.63;42.70;;;;;;;2.51;100.00;98942.44;5101852;28;20464;-76
2022/01/01 10:16:06;;;;;;;83.40;40.80;;;;;;;2.57;100.00;98930.78;5108054;28;20019;-77
2022/01/01 10:18:35;;;;;;;88.85;42.53;;;;;;;2.79;100.00;98933.94;5108687;28;20380;-75
2022/01/01 10:21:00;;;;;;;75.88;40.35;;;;;;;2.81;100.00;98939.94;5110224;28;20012;-76
2022/01/01 10:23:29;;;;;;;97.93;42.78;;;;;;;2.79;100.00;98934.75;5108778;28;20034;-75
2022/01/01 10:29:04;;;;;;;112.38;48.92;;;;;;;2.64;100.00;98934.25;5109561;28;20031;-75
2022/01/01 10:31:32;;;;;;;89.70;45.80;;;;;;;2.59;100.00;98934.94;5112512;28;20707;-75
2022/01/01 10:33:58;;;;;;;91.20;46.20;;;;;;;2.57;100.00;98936.16;5103899;28;20034;-77
2022/01/01 10:36:24;;;;;;;120.30;46.13;;;;;;;2.65;100.00;98941.31;5114131;28;20035;-78
2022/01/01 10:38:50;;;;;;;89.32;44.95;;;;;;;2.65;100.00;98944.03;5114407;28;20440;-75
2022/01/01 10:41:17;;;;;;;95.75;46.05;;;;;;;2.59;100.00;98934.09;5114059;28;20012;-75
2022/01/01 10:43:45;;;;;;;113.53;48.40;;;;;;;2.52;100.00;98938.72;5115527;28;20024;-77
2022/01/01 10:46:25;;;;;;;97.35;46.17;;;;;;;2.72;100.00;98946.66;5118030;28;20113;-77
2022/01/01 10:48:57;;;;;;;96.38;46.38;;;;;;;2.72;100.00;98950.19;5120104;27;20035;-76
2022/01/01 10:51:35;;;;;;;93.20;46.08;;;;;;;2.89;100.00;98948.59;5105914;28;20110;-76
2022/01/01 10:54:02;;;;;;;95.20;48.88;;;;;;;2.97;100.00;98953.72;5112775;28;20036;-76
2022/01/01 10:56:36;;;;;;;90.30;47.67;;;;;;;3.24;100.00;98960.50;5113281;28;20081;-73
2022/01/01 10:59:03;;;;;;;101.45;45.95;;;;;;;3.32;100.00;98961.28;5113380;28;20024;-75
2022/01/01 11:01:29;;;;;;;93.90;44.63;;;;;;;3.47;100.00;98959.03;5110216;28;20027;-74
2022/01/01 11:03:55;;;;;;;96.43;44.53;;;;;;;3.72;100.00;98963.31;5104807;28;20065;-75
2022/01/01 11:06:21;;;;;;;111.90;45.83;;;;;;;3.74;100.00;98949.56;5112690;28;20137;-76